Quick Links (Output Below):   Max & Min Temps   /   Climate Reports   /   Zone Forecasts
River Forecasts   /   Forestry Forecasts   /   Aviation Forecasts   /   Radars   /   Features

Terminal Aerodrome Forecast (Arkadelphia)

Pick a Site:
Arkadelphia | El Dorado | Fayetteville | Fort Smith | Harrison | Highfill | Hot Springs | Jonesboro
Little Rock | Monticello | Mountain Home | Pine Bluff | Texarkana
 Forecast 

KADF 292336Z 3000/3024 24009KT P6SM SCT150
     FM300300 32003KT P6SM BKN100
      TEMPO 3004/3008 5SM TSRA BR OVC025CB
     FM300900 06003KT P6SM SKC
     FM301500 10006KT P6SM SKC=


 Latest METARs (Observations) 
How to Decode METARs
00Z KADF 292356Z AUTO 23006KT 10SM CLR 25/14 A2998 RMK AO2 55008
         T02500144 10277 20200 SLP166
         
***** Today's Observations (Above) *****


23Z KADF 292256Z AUTO 23015KT 10SM CLR 27/14 A2997 RMK AO2 T02660138
         SLP163
         
22Z KADF 292156Z AUTO 21013KT 10SM CLR 27/13 A2998 RMK AO2 T02720133
         SLP165
         
21Z KADF 292056Z AUTO 19009KT 10SM CLR 27/14 A3000 RMK AO2 56035
         T02660138 SLP173
         
20Z KADF 291956Z AUTO 17011KT 10SM CLR 26/13 A3002 RMK AO2 T02550133
         SLP180
         
19Z KADF 291856Z AUTO 22010KT 10SM CLR 23/13 A3006 RMK AO2 T02330133
         PRESFR SLP193
         
18Z KADF 291756Z AUTO VRB03KT 10SM CLR 20/12 A3010 RMK AO2 58027
         T02000122 10200 20033 SLP209
         
17Z KADF 291656Z AUTO VRB04KT 10SM CLR 16/11 A3014 RMK AO2 T01610105
         SLP220
         
16Z KADF 291556Z AUTO 17006KT 9SM OVC013 11/08 A3016 RMK AO2 T01050077
         SLP229
         
15Z KADF 291456Z AUTO 16003KT 10SM OVC013 08/05 A3018 RMK AO2 58002
         T00770050 SLP236
         
***** Yesterday's Observations (Above) *****


Back to Main Page
http://www.srh.noaa.gov/lzk/qfcst.php

USA.gov is the U.S. government's official web portal to all federal, state and local government web resources and services.